Tiempo atmosférico en la estación meteorológica de Arganda Del Rey, Madrid (533 m.)



Fecha
DESCASC
Temp. máxima en grados centígrados (hora)
DESCASC
Temp. mínima en grados centígrados (hora)
DESCASC
Temp. media en grados centígrados
DESCASC
Racha de viento máxima en m/sg (hora)
DESCASC
Velocidad máxima media en intervalos de 10 minutos(hora)
DESCASC
Precipitaciones diarias en mm
DESCASC
Precipitaciones de 00:00 a 06:00 en mm
DESCASC
Precipitaciones de 06:00 a 12:00 en mm
DESCASC
Precipitaciones de 12:00 a 18:00 en mm
DESCASC
Precipitaciones de 18:00 a 24:00 en mm
DESCASC
31-03-2020 11.5 (17:10) 1.3 (01:10) 6.4 10.28 (17:40) 6.11 (17:40) 14.6 0 1.6 6 7
30-03-2020 12.9 (00:40) 1.8 (23:59) 7.3 11.67 (16:20) 6.67 (17:30) 0.8 0 0 0 0.8
29-03-2020 19.9 (17:10) 1.9 (00:00) 10.9 5.83 (17:50) 3.61 (18:40) 0 0 0 0 0
28-03-2020 17.2 (18:10) 0 (00:00) 8.6 6.39 (16:30) 3.33 (16:30) 0 0 0 0 0
27-03-2020 12.3 (17:50) 2.9 (00:00) 7.6 9.72 (19:20) 5.28 (19:30) 0 0 0 0 0
26-03-2020 16.8 (15:10) 0.8 (00:00) 8.8 10.83 (17:10) 6.39 (18:00) 0 0 0 0 0
25-03-2020 17.2 (16:40) 4.7 (00:00) 11 8.61 (19:50) 5.28 (18:10) 0 0 0 0 0
24-03-2020 15.8 (12:30) 8.8 (00:00) 12.3 7.78 (12:30) 4.72 (11:40) 0 0 0 0 0
23-03-2020 15.4 (15:20) 8.2 (00:00) 11.8 16.67 (15:50) 8.33 (15:50) 9.2 1.2 4 4 0
22-03-2020 13.7 (15:20) 3.8 (07:40) 8.7 7.22 (13:40) 4.72 (13:10) 0.4 0.2 0.2 0 0
21-03-2020 10.5 (11:50) 6 (00:00) 8.3 6.39 (14:00) 4.44 (14:00) 0.8 0 0.2 0.2 0.4
20-03-2020 14.4 (12:40) 7.1 (00:00) 10.7 10.28 (12:30) 7.22 (12:30) 0 0 0 0 0
19-03-2020 17.7 (16:20) 8.8 (00:00) 13.3 7.5 (15:00) 4.72 (17:40) 0 0 0 0 0
18-03-2020 17 (16:00) 7.2 (00:00) 12.1 4.72 (00:50) 2.78 (00:20) 0 0 0 0 0
17-03-2020 17.4 (14:50) 5.6 (00:00) 11.5 9.72 (16:10) 6.39 (15:10) 0.4 0 0.2 0.2 0
16-03-2020 11.4 (15:20) 4.1 (00:00) 7.7 11.11 (16:40) 6.11 (16:40) 7.8 6.8 0.6 0.4 0
15-03-2020 21.3 (14:50) 5.4 (00:00) 13.3 13.06 (19:40) 6.67 (19:50) 11.4 0 0 0 11.4
14-03-2020 24.1 (18:00) 7.5 (00:00) 15.8 4.44 (16:10) 2.22 (09:40) 0 0 0 0 0
13-03-2020 23.8 (16:10) 6.9 (07:30) 15.3 6.67 (15:00) 3.89 (15:40) 0 0 0 0 0
12-03-2020 26 (15:50) 7.3 (00:00) 16.7 4.72 (15:10) 2.78 (14:00) 0 0 0 0 0
11-03-2020 25.5 (16:10) 4.7 (00:00) 15.1 4.17 (15:40) 2.78 (16:50) 0 0 0 0 0
10-03-2020 23.7 (17:10) 3.1 (00:00) 13.4 4.44 (12:10) 3.06 (18:30) 0 0 0 0 0
09-03-2020 19.4 (16:40) 4.8 (00:00) 12.1 8.89 (00:20) 6.11 (00:20) 0 0 0 0 0
08-03-2020 16.7 (14:50) -1 (-00:0) 7.9 7.78 (23:50) 4.72 (17:30) 0 0 0 0 0
07-03-2020 17.9 (17:00) 0.4 (00:00) 9.1 7.22 (13:10) 4.44 (13:10) 0 0 0 0 0
06-03-2020 14.8 (16:10) 5.2 (00:00) 10 16.11 (12:00) 8.33 (11:10) 0 0 0 0 0
05-03-2020 17.2 (15:20) 9.9 (00:00) 13.6 13.89 (14:20) 8.89 (12:20) 0 0 0 0 0
04-03-2020 19.6 (15:40) 10.9 (00:00) 15.3 11.94 (13:50) 7.22 (12:40) 0 0 0 0 0
03-03-2020 14.4 (17:30) 5.3 (00:00) 9.8 14.72 (15:30) 10.28 (15:30) 0 0 0 0 0
02-03-2020 13.5 (12:40) 5.8 (00:00) 9.7 20.83 (06:40) 14.44 (06:40) 2 0.2 1.8 0 0

Gráficas

Temp. máximas Temp. mínimas Temp. medias Precipitaciones Rachas de viento máximas Velocidades máximas media en intervalos de 10 minutos

Datos horarios

Fecha y hora oficial Temperatura (ºC) Velocidad del viento (km/h) Dirección del viento Racha (km/h) Dirección de racha Precipitación (mm) Presión (hPa) Tendencia (hPa) Humedad (%)
2020-03-31 23:00:00 8.9 4 Nordeste 17 Sudeste 2.4 -- -- 93
2020-03-31 22:00:00 9.4 13 Sudeste 25 Sudeste 3.4 -- -- 91
2020-03-31 21:00:00 10.7 8 Este 13 Este 1.2 -- -- 91
2020-03-31 20:00:00 11.1 6 Este 15 Este 0 -- -- 88
2020-03-31 19:00:00 10.7 4 Este 24 Sudeste 0 -- -- 91
2020-03-31 18:00:00 10.2 15 Sudeste 37 Sudeste 1.6 -- -- 87
2020-03-31 17:00:00 11.2 13 Este 28 Sudeste 1.6 -- -- 94
2020-03-31 16:00:00 9.4 5 Norte 16 Oeste 2.4 -- -- 95
2020-03-31 15:00:00 7.9 6 Sudoeste 14 Oeste 0.4 -- -- 94
2020-03-31 14:00:00 7.1 12 Noroeste 26 Oeste 0 -- -- 94
2020-03-31 13:00:00 6.3 6 Norte 17 Norte 0 -- -- 95
2020-03-31 12:00:00 5.1 10 Norte 17 Norte 0.8 -- -- 95
2020-03-31 11:00:00 4.6 6 Norte 13 Nordeste 0.8 -- -- 95
2020-03-31 10:00:00 3.2 0 Calma 11 Noroeste 0 -- -- 94
2020-03-31 09:00:00 2.8 3 Norte 16 Nordeste 0 -- -- 94
2020-03-31 08:00:00 2.1 6 Nordeste 16 Norte 0 -- -- 94
2020-03-31 07:00:00 1.8 8 Nordeste 25 Nordeste 0 -- -- 94
2020-03-31 06:00:00 1.6 12 Nordeste 28 Nordeste 0 -- -- 94
2020-03-31 05:00:00 1.7 15 Nordeste 30 Nordeste 0 -- -- 94
2020-03-31 04:00:00 1.9 15 Norte 28 Norte 0 -- -- 94
2020-03-31 03:00:00 1.7 12 Nordeste 28 Norte 0 -- -- 94
2020-03-31 02:00:00 1.5 15 Norte 30 Norte 0 -- -- 94
2020-03-31 01:00:00 1.4 13 Norte 26 Nordeste 0 -- -- 93
2020-03-31 00:00:00 1.8 12 Nordeste 26 Norte 0.4 -- -- 91
2020-03-30 23:00:00 2.6 14 Norte 26 Nordeste 0.4 -- -- 88
2020-03-30 22:00:00 3.2 14 Nordeste 32 Norte 0 -- -- 85
2020-03-30 21:00:00 3.7 14 Nordeste 36 Nordeste 0 -- -- 83
2020-03-30 20:00:00 4.5 13 Nordeste 36 Nordeste 0 -- -- 78
2020-03-30 19:00:00 4.6 17 Nordeste 39 Nordeste 0 -- -- 76
2020-03-30 18:00:00 4.7 18 Nordeste 41 Nordeste 0 -- -- 77
2020-03-30 17:00:00 4.5 17 Nordeste 42 Nordeste 0 -- -- 80
2020-03-30 16:00:00 4.4 22 Nordeste 38 Norte 0 -- -- 80
2020-03-30 15:00:00 5.2 20 Norte 35 Norte 0 -- -- 76
2020-03-30 14:00:00 7.2 23 Norte 39 Norte 0 -- -- 57
2020-03-30 13:00:00 8.2 17 Nordeste 32 Norte 0 -- -- 57
2020-03-30 12:00:00 7.4 18 Nordeste 35 Norte 0 -- -- 57
2020-03-30 11:00:00 8 17 Nordeste 33 Nordeste 0 -- -- 60
2020-03-30 10:00:00 7.3 14 Nordeste 33 Nordeste 0 -- -- 61
2020-03-30 09:00:00 7.2 20 Nordeste 33 Norte 0 -- -- 62
2020-03-30 08:00:00 7.6 18 Norte 32 Norte 0 -- -- 63
2020-03-30 07:00:00 8.4 15 Norte 24 Nordeste 0 -- -- 62
2020-03-30 06:00:00 9 12 Nordeste 24 Nordeste 0 -- -- 61
2020-03-30 05:00:00 9.5 10 Norte 18 Norte 0 -- -- 63
2020-03-30 04:00:00 10.1 7 Norte 14 Norte 0 -- -- 62
2020-03-30 03:00:00 10.8 3 Nordeste 11 Nordeste 0 -- -- 60
2020-03-30 02:00:00 11.5 8 Nordeste 21 Nordeste 0 -- -- 56
2020-03-30 01:00:00 12.5 9 Nordeste 21 Nordeste 0 -- -- 53
2020-03-30 00:00:00 11.8 0 Calma 7 Norte 0 -- -- 68
2020-03-29 23:00:00 12.1 0 Calma 12 Norte 0 -- -- 66
2020-03-29 22:00:00 12.3 0 Calma 8 Sudoeste 0 -- -- 59
2020-03-29 21:00:00 13.4 6 Sudoeste 10 Sudoeste 0 -- -- 57
2020-03-29 20:00:00 15.9 9 Sudoeste 15 Sudoeste 0 -- -- 49
2020-03-29 19:00:00 19.1 8 Sudoeste 20 Sudoeste 0 -- -- 38
2020-03-29 18:00:00 19.4 10 Sudoeste 21 Sudoeste 0 -- -- 39
2020-03-29 17:00:00 19.8 5 Sur 19 Sudoeste 0 -- -- 39
2020-03-29 16:00:00 19.2 6 Sudoeste 16 Sur 0 -- -- 41
2020-03-29 15:00:00 18.2 7 Sur 20 Sudoeste 0 -- -- 39
2020-03-29 14:00:00 16.7 6 Sudoeste 14 Sur 0 -- -- 48
2020-03-29 13:00:00 14.7 5 Sudoeste 11 Sur 0 -- -- 58
2020-03-29 12:00:00 12 0 Calma 6 Sur 0 -- -- 61
2020-03-29 11:00:00 9 0 Calma 4 Oeste 0 -- -- 72
2020-03-29 10:00:00 6.3 0 Calma 5 Este 0 -- -- 80
2020-03-29 09:00:00 3.4 3 Nordeste 6 Nordeste 0 -- -- 89
2020-03-29 08:00:00 1.9 3 Nordeste 8 Nordeste 0 -- -- 89
2020-03-29 07:00:00 2.3 5 Este 6 Nordeste 0 -- -- 88
2020-03-29 06:00:00 2.6 4 Nordeste 7 Nordeste 0 -- -- 88
2020-03-29 05:00:00 2.8 2 Nordeste 6 Nordeste 0 -- -- 87
2020-03-29 03:00:00 3.7 0 Calma 2 Este 0 -- -- 86
2020-03-29 01:00:00 4.3 0 Calma 2 Este 0 -- -- 82
2020-03-29 00:00:00 5.3 0 Calma 3 Este 0 -- -- 80
2020-03-28 23:00:00 6.3 0 Calma 4 Este 0 -- -- 77
2020-03-28 22:00:00 7.7 0 Calma 4 Este 0 -- -- 71
2020-03-28 21:00:00 9.6 0 Calma 5 Sudoeste 0 -- -- 66
2020-03-28 20:00:00 11.2 4 Sudoeste 13 Sudoeste 0 -- -- 57
2020-03-28 19:00:00 14.4 8 Sudoeste 14 Sudoeste 0 -- -- 50
2020-03-28 18:00:00 16.9 4 Sudoeste 13 Oeste 0 -- -- 36
2020-03-28 17:00:00 17 9 Sudoeste 23 Sudoeste 0 -- -- 39
2020-03-28 16:00:00 16.6 10 Sudoeste 16 Sudoeste 0 -- -- 38
2020-03-28 15:00:00 16.2 4 Sudeste 18 Oeste 0 -- -- 36
2020-03-28 14:00:00 15.4 10 Sudeste 23 Nordeste 0 -- -- 38
2020-03-28 13:00:00 14.2 8 Sudeste 14 Sur 0 -- -- 38
2020-03-28 12:00:00 12.7 5 Sudoeste 11 Oeste 0 -- -- 48
2020-03-28 11:00:00 10.8 2 Sudeste 5 Sudeste 0 -- -- 64
2020-03-28 10:00:00 7.8 3 Este 14 Nordeste 0 -- -- 75
2020-03-28 09:00:00 4.5 9 Este 13 Nordeste 0 -- -- 86
2020-03-28 08:00:00 1.3 0 Calma 6 Sudeste 0 -- -- 95
2020-03-28 07:00:00 0.1 0 Calma 6 Nordeste 0 -- -- 94
2020-03-28 06:00:00 0.7 4 Nordeste 8 Este 0 -- -- 94
2020-03-28 05:00:00 0.9 5 Nordeste 8 Nordeste 0 -- -- 93
2020-03-28 04:00:00 1.2 4 Nordeste 6 Nordeste 0 -- -- 93
2020-03-28 03:00:00 1.1 3 Nordeste 5 Nordeste 0 -- -- 92
2020-03-28 02:00:00 1.8 0 Calma 8 Nordeste 0 -- -- 91
2020-03-28 01:00:00 2.4 3 Nordeste 6 Nordeste 0 -- -- 91
2020-03-28 00:00:00 2.9 2 Este 6 Sudeste 0 -- -- 90
2020-03-27 23:00:00 3.8 0 Calma 6 Nordeste 0 -- -- 87
2020-03-27 22:00:00 4.7 0 Calma 6 Sur 0 -- -- 86
2020-03-27 21:00:00 6.1 0 Calma 8 Nordeste 0 -- -- 78
2020-03-27 20:00:00 7.4 9 Sur 35 Este 0 -- -- 77
2020-03-27 19:00:00 11.2 8 Sur 12 Sudeste 0 -- -- 58
2020-03-27 18:00:00 12.2 5 Sur 12 Sur 0 -- -- 57
2020-03-27 17:00:00 11 2 Este 8 Oeste 0 -- -- 59
2020-03-27 16:00:00 9.9 3 Sudoeste 15 Sudeste 0 -- -- 66
2020-03-27 15:00:00 9.4 6 Este 23 Sudeste 0 -- -- 63
2020-03-27 14:00:00 9 12 Este 24 Este 0 -- -- 67
2020-03-27 13:00:00 8.3 12 Este 21 Sudeste 0 -- -- 69
2020-03-27 12:00:00 7.8 7 Sudeste 17 Este 0 -- -- 76
2020-03-27 11:00:00 5.7 7 Nordeste 18 Nordeste 0 -- -- 83
2020-03-27 10:00:00 4.1 12 Nordeste 26 Nordeste 0 -- -- 86
2020-03-27 09:00:00 3.7 12 Nordeste 23 Nordeste 0 -- -- 86
2020-03-27 08:00:00 3.6 10 Nordeste 27 Nordeste 0 -- -- 86
2020-03-27 07:00:00 4.4 13 Nordeste 27 Nordeste 0 -- -- 75
2020-03-27 06:00:00 5.2 10 Nordeste 22 Nordeste 0 -- -- 69
2020-03-27 05:00:00 5.9 12 Nordeste 21 Norte 0 -- -- 60
2020-03-27 04:00:00 6.3 8 Nordeste 15 Nordeste 0 -- -- 58
2020-03-27 03:00:00 6.8 6 Nordeste 20 Nordeste 0 -- -- 57
2020-03-27 02:00:00 7.4 11 Nordeste 19 Nordeste 0 -- -- 55
2020-03-27 01:00:00 6.2 0 Calma 13 Norte 0 -- -- 69
2020-03-27 00:00:00 6.3 5 Nordeste 13 Nordeste 0 -- -- 62
2020-03-26 23:00:00 7.5 7 Norte 23 Norte 0 -- -- 56
2020-03-26 22:00:00 9.2 10 Norte 32 Norte 0 -- -- 50
2020-03-26 21:00:00 10 19 Norte 33 Norte 0 -- -- 46
2020-03-26 20:00:00 11.1 13 Norte 30 Norte 0 -- -- 43
2020-03-26 19:00:00 13.1 15 Norte 31 Norte 0 -- -- 39
2020-03-26 18:00:00 13.9 23 Norte 39 Norte 0 -- -- 36
2020-03-26 17:00:00 15.5 18 Norte 33 Norte 0 -- -- 35
2020-03-26 16:00:00 16.6 17 Norte 32 Norte 0 -- -- 35
2020-03-26 15:00:00 16.3 8 Norte 20 Norte 0 -- -- 37
2020-03-26 14:00:00 15.3 6 Este 16 Este 0 -- -- 31
2020-03-26 13:00:00 14 4 Nordeste 12 Nordeste 0 -- -- 33
2020-03-26 12:00:00 12.6 4 Sur 11 Sudoeste 0 -- -- 41
2020-03-26 11:00:00 10.6 4 Sudoeste 8 Sudoeste 0 -- -- 44
2020-03-26 10:00:00 9 3 Este 10 Este 0 -- -- 55
2020-03-26 09:00:00 6.1 3 Sur 7 Nordeste 0 -- -- 68
2020-03-26 08:00:00 2.6 0 Calma 5 Sur 0 -- -- 89
2020-03-26 07:00:00 0.8 2 Sudoeste 5 Nordeste 0 -- -- 87
2020-03-26 06:00:00 1.5 0 Calma 6 Nordeste 0 -- -- 91
2020-03-26 05:00:00 2.7 0 Calma 6 Sur 0 -- -- 91
2020-03-26 04:00:00 4.4 0 Calma 6 Nordeste 0 -- -- 87
2020-03-26 03:00:00 5.3 5 Nordeste 8 Norte 0 -- -- 85
2020-03-26 02:00:00 6.1 3 Norte 10 Norte 0 -- -- 83
2020-03-26 01:00:00 6.7 3 Sudeste 9 Nordeste 0 -- -- 87
2020-03-26 00:00:00 8 4 Nordeste 10 Nordeste 0 -- -- 86
2020-03-25 23:00:00 9.4 2 Este 5 Sur 0 -- -- 83
2020-03-25 22:00:00 10.3 5 Sur 10 Noroeste 0 -- -- 78
2020-03-25 21:00:00 12.7 7 Oeste 20 Noroeste 0 -- -- 69
2020-03-25 20:00:00 14.1 9 Oeste 31 Oeste 0 -- -- 64
2020-03-25 19:00:00 15.7 16 Oeste 27 Sudoeste 0 -- -- 58
2020-03-25 18:00:00 16.7 17 Sudoeste 26 Sudoeste 0 -- -- 55
2020-03-25 17:00:00 17.2 14 Sudoeste 24 Sudoeste 0 -- -- 54
2020-03-25 16:00:00 16.8 12 Sudoeste 25 Sudoeste 0 -- -- 55
2020-03-25 15:00:00 16.2 13 Sur 23 Sur 0 -- -- 61
2020-03-25 14:00:00 15 9 Sudoeste 19 Sudoeste 0 -- -- 59
2020-03-25 13:00:00 13.7 9 Oeste 18 Sudoeste 0 -- -- 62
2020-03-25 12:00:00 12.4 9 Sudoeste 20 Sudoeste 0 -- -- 66
2020-03-25 11:00:00 10.9 8 Sudoeste 18 Sudoeste 0 -- -- 71
2020-03-25 10:00:00 10 6 Sudoeste 12 Sudoeste 0 -- -- 74
2020-03-25 09:00:00 8.6 2 Sur 4 Sudeste 0 -- -- 86
2020-03-25 08:00:00 5.8 0 Calma 5 Sur 0 -- -- 92
2020-03-25 07:00:00 5.1 4 Sur 5 Sur 0 -- -- 88
2020-03-25 06:00:00 6.7 4 Sur 6 Sur 0 -- -- 87
2020-03-25 05:00:00 7.8 2 Sur 6 Sur 0 -- -- 86
2020-03-25 04:00:00 8 3 Sur 14 Sur 0 -- -- 84
2020-03-25 03:00:00 8.3 8 Sudoeste 15 Sur 0 -- -- 82
2020-03-25 02:00:00 9 4 Sudoeste 12 Sur 0 -- -- 83
2020-03-25 01:00:00 9.5 9 Sur 17 Sur 0 -- -- 79
2020-03-25 00:00:00 9.9 3 Sur 5 Sudeste 0 -- -- 87
2020-03-24 23:00:00 10.2 0 Calma 6 Oeste 0 -- -- 86
2020-03-24 22:00:00 10.5 0 Calma 9 Sudoeste 0 -- -- 86
2020-03-24 21:00:00 11.6 4 Sudoeste 6 Sudoeste 0 -- -- 85
2020-03-24 20:00:00 12.1 2 Noroeste 6 Sur 0 -- -- 77
2020-03-24 19:00:00 12.5 4 Sur 19 Sur 0 -- -- 74
2020-03-24 18:00:00 14 11 Sur 17 Sur 0 -- -- 65
2020-03-24 17:00:00 14.4 7 Sudoeste 13 Sudoeste 0 -- -- 71
2020-03-24 16:00:00 15.6 8 Sur 21 Este 0 -- -- 62
2020-03-24 15:00:00 15.3 7 Este 17 Este 0 -- -- 57
2020-03-24 14:00:00 15 6 Nordeste 22 Norte 0 -- -- 60
2020-03-24 13:00:00 15.5 12 Nordeste 28 Este 0 -- -- 61
2020-03-24 12:00:00 15.1 13 Nordeste 27 Nordeste 0 -- -- 60
2020-03-24 11:00:00 12.6 15 Nordeste 27 Norte 0 -- -- 73
2020-03-24 10:00:00 10.7 12 Nordeste 22 Norte 0 -- -- 78
2020-03-24 09:00:00 9.2 6 Nordeste 24 Norte 0 -- -- 84
2020-03-24 08:00:00 9.1 13 Nordeste 25 Norte 0 -- -- 83
2020-03-24 07:00:00 8.9 10 Nordeste 19 Nordeste 0 -- -- 86
2020-03-24 06:00:00 9 9 Nordeste 17 Norte 0 -- -- 84
2020-03-24 05:00:00 9.2 9 Nordeste 21 Norte 0 -- -- 82
2020-03-24 04:00:00 9.1 8 Nordeste 15 Nordeste 0 -- -- 82
2020-03-24 03:00:00 9.2 6 Norte 14 Nordeste 0 -- -- 83
2020-03-24 02:00:00 9.2 6 Nordeste 14 Nordeste 0 -- -- 83
2020-03-24 01:00:00 9.4 7 Nordeste 14 Nordeste 0 -- -- 84
2020-03-24 00:00:00 9.3 4 Nordeste 12 Norte 0 -- -- 82
2020-03-23 23:00:00 10.2 0 Calma 17 Norte 0 -- -- 78
2020-03-23 22:00:00 10.3 5 Nordeste 14 Nordeste 0 -- -- 78
2020-03-23 21:00:00 10.7 7 Nordeste 15 Este 0 -- -- 77
2020-03-23 20:00:00 11.6 5 Nordeste 17 Este 0 -- -- 76
2020-03-23 19:00:00 13.7 14 Este 31 Este 0 -- -- 66
2020-03-23 18:00:00 14.1 17 Este 29 Este 0 -- -- 66
2020-03-23 17:00:00 12.1 16 Este 42 Este 0 -- -- 76
2020-03-23 16:00:00 10.9 15 Este 60 Este 3.8 -- -- 78
2020-03-23 15:00:00 15.2 11 Nordeste 22 Sudeste 0 -- -- 64
2020-03-23 14:00:00 12.6 8 Sur 32 Sudeste 0.2 -- -- 77
2020-03-23 13:00:00 13.8 16 Este 26 Este 0 -- -- 72
2020-03-23 12:00:00 11.9 10 Nordeste 16 Nordeste 0.2 -- -- 85
2020-03-23 11:00:00 9.7 8 Nordeste 17 Nordeste 0.4 -- -- 90
2020-03-23 10:00:00 9.9 6 Nordeste 13 Nordeste 0 -- -- 93
2020-03-23 09:00:00 8.8 4 Este 8 Este 0 -- -- 93
2020-03-23 08:00:00 8.5 5 Norte 10 Norte 1 -- -- 93
2020-03-23 07:00:00 8.5 7 Este 14 Este 2.4 -- -- 93
2020-03-23 06:00:00 8.7 5 Nordeste 9 Norte 0.2 -- -- 93
2020-03-23 05:00:00 8.7 3 Nordeste 8 Norte 0.2 -- -- 93
2020-03-23 04:00:00 8.7 4 Nordeste 14 Norte 0.4 -- -- 92
2020-03-23 03:00:00 9 7 Nordeste 12 Norte 0.4 -- -- 91
2020-03-23 02:00:00 9.2 6 Nordeste 9 Nordeste 0 -- -- 91
2020-03-23 01:00:00 9.2 5 Norte 10 Norte 0 -- -- 90
2020-03-23 00:00:00 9.3 0 Calma 7 Nordeste 0 -- -- 87
2020-03-22 23:00:00 9.2 4 Nordeste 9 Nordeste 0 -- -- 86
2020-03-22 22:00:00 9.5 2 Norte 20 Este 0 -- -- 85
2020-03-22 21:00:00 10.1 4 Este 18 Este 0 -- -- 83
2020-03-22 20:00:00 10.6 0 Calma 8 Noroeste 0 -- -- 82
2020-03-22 19:00:00 10.9 4 Noroeste 16 Este 0 -- -- 76
2020-03-22 18:00:00 11 8 Sudoeste 24 Sudeste 0 -- -- 81
2020-03-22 17:00:00 12.8 11 Norte 24 Nordeste 0 -- -- 69
2020-03-22 16:00:00 13.5 12 Norte 24 Norte 0 -- -- 66
2020-03-22 15:00:00 13.5 15 Norte 23 Norte 0 -- -- 67
2020-03-22 14:00:00 12.9 14 Norte 26 Norte 0 -- -- 69
2020-03-22 13:00:00 12.7 14 Norte 24 Norte 0 -- -- 73
2020-03-22 12:00:00 13.1 13 Norte 23 Norte 0 -- -- 68
2020-03-22 11:00:00 12 12 Norte 19 Norte 0.2 -- -- 71
2020-03-22 10:00:00 10 3 Norte 5 Norte 0 -- -- 85
2020-03-22 09:00:00 6.6 0 Calma 4 Nordeste 0 -- -- 94
2020-03-22 08:00:00 4 3 Nordeste 5 Norte 0 -- -- 93
2020-03-22 07:00:00 4.9 0 Calma 5 Este 0 -- -- 92
2020-03-22 06:00:00 6.2 4 Nordeste 5 Nordeste 0 -- -- 92
2020-03-22 05:00:00 6.2 2 Sudeste 4 Sudeste 0 -- -- 90
2020-03-22 04:00:00 7.4 0 Calma 6 Nordeste 0 -- -- 89
2020-03-22 03:00:00 7.5 3 Nordeste 6 Nordeste 0.2 -- -- 90
2020-03-22 02:00:00 7.4 0 Calma 4 Norte 0 -- -- 90
2020-03-22 01:00:00 7.3 2 Norte 4 Oeste 0 -- -- 90
2020-03-22 00:00:00 7.6 0 Calma 11 Este 0 -- -- 88
2020-03-21 23:00:00 7.9 10 Este 17 Este 0 -- -- 85
2020-03-21 22:00:00 8.2 5 Nordeste 16 Este 0.2 -- -- 87
2020-03-21 21:00:00 8.9 3 Nordeste 10 Nordeste 0 -- -- 90
2020-03-21 20:00:00 9.1 3 Nordeste 8 Nordeste 0 -- -- 89
2020-03-21 19:00:00 9.5 4 Nordeste 6 Nordeste 0.2 -- -- 87
2020-03-21 18:00:00 9.9 3 Noroeste 8 Noroeste 0 -- -- 84
2020-03-21 17:00:00 10 4 Oeste 8 Norte 0 -- -- 83
2020-03-21 16:00:00 9.8 5 Sudeste 13 Sudoeste 0 -- -- 85
2020-03-21 15:00:00 9.4 8 Sudoeste 17 Sudoeste 0 -- -- 90
2020-03-21 14:00:00 8.7 16 Sudoeste 23 Sudoeste 0 -- -- 89
2020-03-21 13:00:00 9.9 5 Sudoeste 14 Sudoeste 0.2 -- -- 88
2020-03-21 12:00:00 10.5 7 Sudeste 12 Sudeste 0 -- -- 87
2020-03-21 11:00:00 10.2 6 Sudeste 12 Sudeste 0.2 -- -- 85
2020-03-21 10:00:00 10.4 7 Sudeste 15 Este 0 -- -- 79
2020-03-21 09:00:00 9.4 5 Nordeste 11 Este 0 -- -- 80
2020-03-21 08:00:00 8.5 5 Nordeste 13 Nordeste 0 -- -- 80
2020-03-21 07:00:00 7.4 6 Nordeste 13 Este 0 -- -- 84
2020-03-21 06:00:00 7.8 6 Nordeste 14 Nordeste 0 -- -- 81
2020-03-21 05:00:00 8.2 5 Nordeste 10 Nordeste 0 -- -- 81
2020-03-21 04:00:00 7.9 5 Norte 16 Nordeste 0 -- -- 81
2020-03-21 03:00:00 8.3 6 Nordeste 12 Nordeste 0 -- -- 80
2020-03-21 02:00:00 8.2 9 Este 22 Este 0 -- -- 82
2020-03-21 01:00:00 6.1 2 Nordeste 6 Norte 0 -- -- 90
2020-03-21 00:00:00 7.1 2 Nordeste 4 Nordeste 0 -- -- 86
2020-03-20 23:00:00 8.4 3 Sudeste 8 Nordeste 0 -- -- 81
2020-03-20 22:00:00 9.8 4 Nordeste 11 Este 0 -- -- 79
2020-03-20 21:00:00 11.5 6 Nordeste 17 Este 0 -- -- 73
2020-03-20 20:00:00 12.4 8 Este 26 Sudeste 0 -- -- 71
2020-03-20 19:00:00 12.9 16 Este 28 Este 0 -- -- 68
2020-03-20 18:00:00 13.5 16 Este 27 Este 0 -- -- 65
2020-03-20 17:00:00 13.8 15 Este 27 Este 0 -- -- 63
2020-03-20 16:00:00 13.9 13 Este 27 Sudeste 0 -- -- 64
2020-03-20 15:00:00 13.7 19 Este 31 Sudeste 0 -- -- 63
2020-03-20 14:00:00 14 17 Este 29 Sudeste 0 -- -- 63
2020-03-20 13:00:00 14 17 Este 37 Sudeste 0 -- -- 63
2020-03-20 12:00:00 13.7 15 Sudeste 25 Sudeste 0 -- -- 67
2020-03-20 11:00:00 12.1 14 Sudeste 27 Sudeste 0 -- -- 70
2020-03-20 10:00:00 11.4 10 Este 22 Sudeste 0 -- -- 72
2020-03-20 09:00:00 10.8 10 Sudeste 19 Este 0 -- -- 72
2020-03-20 08:00:00 10.4 5 Este 10 Nordeste 0 -- -- 73
2020-03-20 07:00:00 10.4 6 Este 14 Este 0 -- -- 73
2020-03-20 06:00:00 10.6 7 Este 14 Nordeste 0 -- -- 71
2020-03-20 05:00:00 10.7 6 Este 20 Este 0 -- -- 72
2020-03-20 04:00:00 10.9 2 Sur 22 Sudeste 0 -- -- 72
2020-03-20 03:00:00 11.3 12 Este 19 Este 0 -- -- 72
2020-03-20 02:00:00 11.7 8 Este 17 Sudeste 0 -- -- 73
2020-03-20 01:00:00 11.9 7 Este 22 Este 0 -- -- 72
2020-03-20 00:00:00 11.7 7 Este 19 Este 0 -- -- 73
2020-03-19 23:00:00 11.2 6 Nordeste 11 Nordeste 0 -- -- 75
2020-03-19 22:00:00 11.6 3 Este 17 Sudeste 0 -- -- 71
2020-03-19 21:00:00 12.4 10 Sudeste 23 Sudeste 0 -- -- 70
2020-03-19 20:00:00 13.3 6 Sudeste 16 Sudeste 0 -- -- 67
2020-03-19 19:00:00 14.3 12 Sudeste 25 Sudeste 0 -- -- 64
2020-03-19 18:00:00 16.1 15 Sudeste 26 Sudeste 0 -- -- 58
2020-03-19 17:00:00 17.4 14 Sudeste 24 Sudeste 0 -- -- 54
2020-03-19 16:00:00 17.3 14 Este 23 Este 0 -- -- 50
2020-03-19 15:00:00 17.1 15 Sudeste 27 Este 0 -- -- 54
2020-03-19 14:00:00 16.4 12 Este 25 Este 0 -- -- 56
2020-03-19 13:00:00 16 13 Este 22 Este 0 -- -- 59
2020-03-19 12:00:00 15.6 14 Sudeste 21 Sudeste 0 -- -- 62
2020-03-19 11:00:00 13.7 8 Este 17 Sudeste 0 -- -- 65
2020-03-19 10:00:00 12.4 14 Este 21 Este 0 -- -- 67
2020-03-19 09:00:00 10.5 5 Nordeste 13 Sudeste 0 -- -- 73
2020-03-19 08:00:00 9.3 7 Este 11 Este 0 -- -- 77
2020-03-19 07:00:00 9.2 2 Nordeste 9 Este 0 -- -- 86
2020-03-19 06:00:00 9.2 3 Noroeste 6 Sur 0 -- -- 85
2020-03-19 05:00:00 8.9 5 Sudoeste 9 Sur 0 -- -- 88
2020-03-19 04:00:00 9.3 5 Sudoeste 9 Sur 0 -- -- 85
2020-03-19 03:00:00 9.5 3 Este 6 Sudeste 0 -- -- 86
2020-03-19 02:00:00 10.1 0 Calma 5 Sur 0 -- -- 82
2020-03-19 01:00:00 10.3 0 Calma 5 Oeste 0 -- -- 89
2020-03-19 00:00:00 10.6 3 Oeste 4 Oeste 0 -- -- 89
2020-03-18 23:00:00 11.2 0 Calma 9 Sudoeste 0 -- -- 89
2020-03-18 22:00:00 12 0 Calma 4 Nordeste 0 -- -- 84
2020-03-18 21:00:00 12.9 2 Nordeste 4 Oeste 0 -- -- 83
2020-03-18 20:00:00 14.2 0 Calma 6 Sudeste 0 -- -- 77
2020-03-18 19:00:00 15.8 0 Calma 4 Norte 0 -- -- 67
2020-03-18 18:00:00 16.7 2 Norte 6 Noroeste 0 -- -- 63
2020-03-18 17:00:00 16.6 2 Sudoeste 9 Norte 0 -- -- 63
2020-03-18 16:00:00 17 3 Noroeste 9 Noroeste 0 -- -- 62
2020-03-18 15:00:00 16.4 3 Sur 8 Sudeste 0 -- -- 62
2020-03-18 14:00:00 15.6 3 Sudeste 9 Sudoeste 0 -- -- 69
2020-03-18 13:00:00 14.4 4 Sudoeste 9 Sudoeste 0 -- -- 72
2020-03-18 12:00:00 13.2 4 Sudoeste 9 Sur 0 -- -- 75
2020-03-18 11:00:00 11.7 0 Calma 4 Sudeste 0 -- -- 80
2020-03-18 10:00:00 9.8 0 Calma 4 Norte 0 -- -- 90
2020-03-18 09:00:00 8.6 0 Calma 4 Nordeste 0 -- -- 92
2020-03-18 08:00:00 8 4 Este 7 Este 0 -- -- 92
2020-03-18 07:00:00 7.3 2 Sudeste 4 Sudeste 0 -- -- 91
2020-03-18 06:00:00 7.3 2 Este 5 Este 0 -- -- 91
2020-03-18 05:00:00 7.6 0 Calma 6 Este 0 -- -- 89
2020-03-18 04:00:00 8.9 2 Nordeste 11 Nordeste 0 -- -- 86
2020-03-18 03:00:00 9.7 4 Nordeste 12 Nordeste 0 -- -- 84
2020-03-18 02:00:00 10.3 7 Nordeste 15 Nordeste 0 -- -- 82
2020-03-18 01:00:00 10.8 8 Nordeste 17 Nordeste 0 -- -- 82
2020-03-18 00:00:00 11.2 7 Nordeste 17 Nordeste 0 -- -- 83
2020-03-17 23:00:00 11.2 5 Nordeste 10 Nordeste 0 -- -- 84
2020-03-17 22:00:00 13 6 Nordeste 10 Norte 0 -- -- 78
2020-03-17 21:00:00 13.8 4 Nordeste 8 Nordeste 0 -- -- 76
2020-03-17 20:00:00 14.3 4 Nordeste 17 Nordeste 0 -- -- 71
2020-03-17 19:00:00 15 11 Este 21 Nordeste 0 -- -- 67
2020-03-17 18:00:00 15.8 12 Nordeste 25 Nordeste 0 -- -- 64
2020-03-17 17:00:00 16.6 15 Este 35 Este 0 -- -- 63
2020-03-17 16:00:00 16.6 20 Este 34 Este 0.2 -- -- 62
2020-03-17 15:00:00 17.2 18 Este 34 Este 0 -- -- 65
2020-03-17 14:00:00 16.6 20 Este 33 Este 0 -- -- 65
2020-03-17 13:00:00 14.3 14 Nordeste 26 Este 0 -- -- 69
2020-03-17 12:00:00 12.4 6 Nordeste 13 Nordeste 0 -- -- 82
2020-03-17 11:00:00 9.3 8 Nordeste 14 Nordeste 0 -- -- 87
2020-03-17 10:00:00 8.2 5 Nordeste 9 Nordeste 0.2 -- -- 90
2020-03-17 09:00:00 7.4 2 Nordeste 11 Norte 0 -- -- 91
2020-03-17 08:00:00 7.3 8 Norte 14 Nordeste 0 -- -- 91
2020-03-17 07:00:00 7.5 8 Nordeste 19 Nordeste 0 -- -- 91
2020-03-17 06:00:00 6.5 9 Norte 17 Norte 0 -- -- 89
2020-03-17 05:00:00 6.5 8 Nordeste 16 Norte 0 -- -- 87
2020-03-17 04:00:00 6.2 6 Nordeste 14 Norte 0 -- -- 84
2020-03-17 03:00:00 5.7 4 Norte 11 Norte 0 -- -- 84
2020-03-17 02:00:00 5.8 5 Norte 14 Norte 0 -- -- 82
2020-03-17 01:00:00 6.2 5 Nordeste 14 Norte 0 -- -- 88
2020-03-17 00:00:00 5.6 2 Nordeste 5 Nordeste 0 -- -- 88
2020-03-16 23:00:00 5.6 3 Nordeste 10 Norte 0 -- -- 84
2020-03-16 22:00:00 5.1 3 Norte 13 Nordeste 0 -- -- 85
2020-03-16 21:00:00 5.5 5 Nordeste 13 Nordeste 0 -- -- 83
2020-03-16 20:00:00 6.5 7 Nordeste 26 Este 0 -- -- 77
2020-03-16 19:00:00 8.2 11 Norte 25 Este 0 -- -- 69
2020-03-16 18:00:00 8.8 14 Nordeste 35 Este 0.2 -- -- 69
2020-03-16 17:00:00 8.3 15 Nordeste 40 Nordeste 0 -- -- 76
2020-03-16 16:00:00 11.3 17 Este 30 Este 0 -- -- 52
2020-03-16 15:00:00 9.8 10 Este 24 Este 0.2 -- -- 59
2020-03-16 14:00:00 9.3 5 Nordeste 18 Sur 0 -- -- 65
2020-03-16 13:00:00 8.7 2 Sur 15 Sur 0 -- -- 67
2020-03-16 12:00:00 8 6 Sudoeste 20 Sudoeste 0.2 -- -- 71
2020-03-16 11:00:00 7.4 18 Sudoeste 28 Sur 0 -- -- 77
2020-03-16 10:00:00 6.9 13 Sur 20 Sur 0.2 -- -- 78
2020-03-16 09:00:00 4.9 7 Sur 17 Sur 0 -- -- 84
2020-03-16 08:00:00 4.4 9 Sur 23 Sudoeste 0.2 -- -- 84
2020-03-16 07:00:00 5.2 12 Sur 27 Sudoeste 0 -- -- 85
2020-03-16 06:00:00 5.9 18 Sudoeste 32 Sudoeste 0.2 -- -- 80
2020-03-16 05:00:00 6.7 12 Sudoeste 20 Sudoeste 0.4 -- -- 89
2020-03-16 04:00:00 7.3 10 Sudoeste 19 Sudoeste 1 -- -- 90
2020-03-16 03:00:00 8.5 9 Sudoeste 23 Sur 2.8 -- -- 91
2020-03-16 02:00:00 9 8 Sudoeste 26 Sur 2.2 -- -- 89
2020-03-16 01:00:00 10.1 8 Sudoeste 29 Sudoeste 0.2 -- -- 83
2020-03-16 00:00:00 11.1 15 Sudoeste 26 Sudoeste 2 -- -- 90
2020-03-15 23:00:00 11.4 10 Sur 16 Sudoeste 1.2 -- -- 90
2020-03-15 22:00:00 11.6 11 Sur 32 Sur 5.8 -- -- 89
2020-03-15 21:00:00 11.8 18 Sur 40 Sur 1.2 -- -- 83
2020-03-15 20:00:00 13.4 12 Oeste 47 Oeste 1.2 -- -- 72
2020-03-15 19:00:00 17 12 Sur 15 Sur 0 -- -- 58
2020-03-15 18:00:00 18.6 12 Sur 19 Sur 0 -- -- 57
2020-03-15 17:00:00 19.1 13 Sudoeste 22 Sudoeste 0 -- -- 56
2020-03-15 16:00:00 19.1 14 Sudoeste 29 Sudoeste 0 -- -- 55
2020-03-15 15:00:00 20.4 17 Sudoeste 29 Sudoeste 0 -- -- 51
2020-03-15 14:00:00 20.5 12 Sudoeste 28 Sur 0 -- -- 54
2020-03-15 13:00:00 19.3 9 Sur 16 Sur 0 -- -- 56
2020-03-15 12:00:00 17 5 Sudoeste 12 Sudoeste 0 -- -- 62
2020-03-15 11:00:00 15.2 5 Oeste 9 Oeste 0 -- -- 66
2020-03-15 10:00:00 12 8 Nordeste 14 Este 0 -- -- 63
2020-03-15 09:00:00 8.8 4 Este 8 Este 0 -- -- 72
2020-03-15 08:00:00 5.7 2 Sudeste 6 Sudeste 0 -- -- 82
2020-03-15 07:00:00 5.4 0 Calma 5 Sur 0 -- -- 83
2020-03-15 06:00:00 6.1 3 Nordeste 5 Nordeste 0 -- -- 80
2020-03-15 05:00:00 6.5 2 Noroeste 3 Norte 0 -- -- 80
2020-03-15 04:00:00 7.1 0 Calma 6 Este 0 -- -- 77
2020-03-15 03:00:00 8.7 3 Este 6 Nordeste 0 -- -- 71
2020-03-15 02:00:00 9.5 2 Este 7 Nordeste 0 -- -- 71
2020-03-15 01:00:00 9.9 6 Este 10 Este 0 -- -- 73
2020-03-15 00:00:00 9.9 4 Sur 8 Nordeste 0 -- -- 76
2020-03-14 23:00:00 11.5 4 Nordeste 12 Nordeste 0 -- -- 71
2020-03-14 22:00:00 12.4 3 Nordeste 4 Nordeste 0 -- -- 68
2020-03-14 21:00:00 14.6 0 Calma 4 Sur 0 -- -- 62
2020-03-14 20:00:00 17.8 2 Sur 8 Oeste 0 -- -- 53
2020-03-14 19:00:00 21.3 6 Oeste 8 Oeste 0 -- -- 48
2020-03-14 18:00:00 24.1 0 Calma 11 Oeste 0 -- -- 41
2020-03-14 17:00:00 23.5 5 Oeste 16 Oeste 0 -- -- 40
2020-03-14 16:00:00 22.8 6 Norte 11 Norte 0 -- -- 44
2020-03-14 15:00:00 22.5 4 Sudeste 12 Este 0 -- -- 45
2020-03-14 14:00:00 21.2 5 Nordeste 12 Norte 0 -- -- 48
2020-03-14 13:00:00 19.4 4 Norte 15 Nordeste 0 -- -- 53
2020-03-14 12:00:00 18.1 4 Noroeste 14 Norte 0 -- -- 58
2020-03-14 11:00:00 15.5 5 Oeste 7 Oeste 0 -- -- 64
2020-03-14 10:00:00 13 4 Este 12 Nordeste 0 -- -- 70
2020-03-14 09:00:00 10.4 5 Este 9 Este 0 -- -- 79
2020-03-14 08:00:00 7.5 4 Nordeste 9 Nordeste 0 -- -- 86
2020-03-14 07:00:00 8 4 Nordeste 6 Nordeste 0 -- -- 85
2020-03-14 06:00:00 8.9 4 Nordeste 11 Norte 0 -- -- 82
2020-03-14 05:00:00 9.3 3 Norte 8 Nordeste 0 -- -- 81
2020-03-14 04:00:00 9.8 5 Nordeste 9 Este 0 -- -- 79
2020-03-14 03:00:00 10.4 7 Nordeste 11 Nordeste 0 -- -- 79
2020-03-14 02:00:00 9.8 3 Este 6 Este 0 -- -- 78
2020-03-14 01:00:00 10.7 3 Sur 5 Oeste 0 -- -- 76
2020-03-14 00:00:00 11.7 2 Sur 6 Nordeste 0 -- -- 75
2020-03-13 23:00:00 12.8 2 Sur 13 Nordeste 0 -- -- 71
2020-03-13 22:00:00 13.8 0 Calma 5 Este 0 -- -- 67
2020-03-13 21:00:00 16 3 Este 5 Sur 0 -- -- 58
2020-03-13 20:00:00 17.6 0 Calma 10 Oeste 0 -- -- 52
2020-03-13 19:00:00 20.7 8 Oeste 13 Oeste 0 -- -- 48
2020-03-13 18:00:00 23 7 Oeste 15 Sudoeste 0 -- -- 40
2020-03-13 17:00:00 23.3 11 Sudoeste 23 Sudoeste 0 -- -- 42
2020-03-13 16:00:00 23.7 10 Sudoeste 23 Sudoeste 0 -- -- 39
2020-03-13 15:00:00 23.1 11 Oeste 24 Oeste 0 -- -- 43
2020-03-13 14:00:00 22.6 3 Noroeste 14 Sudoeste 0 -- -- 48
2020-03-13 13:00:00 21.3 7 Oeste 13 Oeste 0 -- -- 51
2020-03-13 12:00:00 19.4 6 Sudoeste 11 Sur 0 -- -- 55
2020-03-13 11:00:00 17.6 3 Nordeste 9 Norte 0 -- -- 59
2020-03-13 10:00:00 14.7 2 Nordeste 7 Este 0 -- -- 68
2020-03-13 09:00:00 9.9 4 Este 8 Este 0 -- -- 82
2020-03-13 08:00:00 7.8 3 Nordeste 6 Nordeste 0 -- -- 87
2020-03-13 07:00:00 7.4 0 Calma 4 Este 0 -- -- 86
2020-03-13 06:00:00 7.7 2 Sudeste 6 Nordeste 0 -- -- 82
2020-03-13 05:00:00 9.3 2 Nordeste 7 Nordeste 0 -- -- 81
2020-03-13 04:00:00 9.2 5 Este 9 Este 0 -- -- 82
2020-03-13 03:00:00 9.1 4 Nordeste 6 Este 0 -- -- 82
2020-03-13 02:00:00 10.2 4 Nordeste 6 Nordeste 0 -- -- 79
2020-03-13 01:00:00 11.1 0 Calma 4 Sudeste 0 -- -- 76
2020-03-13 00:00:00 12.4 2 Sudeste 5 Sudeste 0 -- -- 72
2020-03-12 23:00:00 14.4 0 Calma 4 Este 0 -- -- 71
2020-03-12 22:00:00 16 0 Calma 4 Norte 0 -- -- 64
2020-03-12 21:00:00 17.8 2 Nordeste 6 Nordeste 0 -- -- 60
2020-03-12 20:00:00 19.8 4 Sudeste 5 Sudeste 0 -- -- 51
2020-03-12 19:00:00 23.1 0 Calma 5 Oeste 0 -- -- 43
2020-03-12 18:00:00 24.6 3 Oeste 11 Oeste 0 -- -- 37
2020-03-12 17:00:00 24.9 7 Oeste 10 Oeste 0 -- -- 40
2020-03-12 16:00:00 25.5 7 Sudoeste 17 Oeste 0 -- -- 38
2020-03-12 15:00:00 25.5 6 Oeste 16 Oeste 0 -- -- 37
2020-03-12 14:00:00 24.4 10 Sudoeste 17 Oeste 0 -- -- 42
2020-03-12 13:00:00 22.8 3 Sudoeste 8 Nordeste 0 -- -- 50
2020-03-12 12:00:00 19.6 3 Norte 10 Nordeste 0 -- -- 54
2020-03-12 11:00:00 16.3 3 Este 9 Este 0 -- -- 65
2020-03-12 10:00:00 13.2 0 Calma 5 Nordeste 0 -- -- 73
2020-03-12 09:00:00 10.6 5 Nordeste 10 Nordeste 0 -- -- 81
2020-03-12 08:00:00 8.7 5 Nordeste 9 Nordeste 0 -- -- 85
2020-03-12 07:00:00 8.5 6 Este 10 Nordeste 0 -- -- 86
2020-03-12 06:00:00 7.9 5 Nordeste 8 Este 0 -- -- 87
2020-03-12 05:00:00 8.6 5 Nordeste 8 Este 0 -- -- 85
2020-03-12 04:00:00 9.2 0 Calma 10 Nordeste 0 -- -- 79
2020-03-12 03:00:00 9.5 5 Nordeste 9 Nordeste 0 -- -- 84
2020-03-12 02:00:00 10.1 3 Nordeste 5 Este 0 -- -- 78
2020-03-12 01:00:00 11 4 Este 10 Nordeste 0 -- -- 77
2020-03-12 00:00:00 12.3 4 Nordeste 9 Nordeste 0 -- -- 72
2020-03-11 23:00:00 12.6 4 Nordeste 7 Nordeste 0 -- -- 73
2020-03-11 22:00:00 14.1 0 Calma 4 Nordeste 0 -- -- 68
2020-03-11 21:00:00 16.6 2 Nordeste 4 Nordeste 0 -- -- 62
2020-03-11 20:00:00 19.1 3 Nordeste 6 Sur 0 -- -- 53
2020-03-11 19:00:00 22.2 0 Calma 8 Sudoeste 0 -- -- 47
2020-03-11 18:00:00 24.3 6 Sudoeste 13 Oeste 0 -- -- 43
2020-03-11 17:00:00 24.4 9 Sudoeste 14 Oeste 0 -- -- 42
2020-03-11 16:00:00 25.2 8 Sudoeste 15 Sudoeste 0 -- -- 39
2020-03-11 15:00:00 24.7 7 Sudoeste 14 Oeste 0 -- -- 41
2020-03-11 14:00:00 23 6 Sudoeste 12 Sudoeste 0 -- -- 46
2020-03-11 13:00:00 21.7 4 Sudoeste 9 Sudoeste 0 -- -- 48
2020-03-11 12:00:00 19.7 4 Este 8 Nordeste 0 -- -- 51
2020-03-11 11:00:00 16.1 3 Sudoeste 8 Este 0 -- -- 61
2020-03-11 10:00:00 12.5 7 Este 9 Nordeste 0 -- -- 68
2020-03-11 09:00:00 9.6 0 Calma 5 Este 0 -- -- 78
2020-03-11 08:00:00 5.8 4 Nordeste 8 Este 0 -- -- 88
2020-03-11 07:00:00 5.1 2 Este 7 Este 0 -- -- 84
2020-03-11 06:00:00 6 4 Nordeste 7 Nordeste 0 -- -- 84
2020-03-11 05:00:00 6.4 5 Nordeste 8 Nordeste 0 -- -- 84
2020-03-11 04:00:00 6.8 4 Nordeste 7 Nordeste 0 -- -- 83
2020-03-11 03:00:00 6.6 0 Calma 7 Nordeste 0 -- -- 80
2020-03-11 02:00:00 8.9 5 Nordeste 8 Nordeste 0 -- -- 76
2020-03-11 01:00:00 8.9 2 Oeste 3 Sur 0 -- -- 75
2020-03-11 00:00:00 9.3 0 Calma 3 Norte 0 -- -- 73
2020-03-10 23:00:00 11.2 3 Nordeste 5 Nordeste 0 -- -- 65
2020-03-10 22:00:00 12.5 0 Calma 4 Norte 0 -- -- 60
2020-03-10 21:00:00 14.3 4 Sur 10 Sudoeste 0 -- -- 55
2020-03-10 20:00:00 16.6 8 Sur 15 Sudoeste 0 -- -- 51
2020-03-10 19:00:00 20.2 9 Oeste 15 Sudoeste 0 -- -- 45
2020-03-10 18:00:00 23.2 6 Sudoeste 16 Sur 0 -- -- 40
2020-03-10 17:00:00 23.5 6 Sudoeste 15 Sudoeste 0 -- -- 38
2020-03-10 16:00:00 22.6 3 Sur 15 Sur 0 -- -- 37
2020-03-10 15:00:00 21.1 6 Oeste 16 Sudoeste 0 -- -- 41
2020-03-10 14:00:00 19 5 Noroeste 14 Sudoeste 0 -- -- 42
2020-03-10 13:00:00 16.9 6 Oeste 16 Oeste 0 -- -- 45
2020-03-10 12:00:00 15.4 7 Sudoeste 13 Sudoeste 0 -- -- 48
2020-03-10 11:00:00 12.1 4 Oeste 8 Oeste 0 -- -- 59
2020-03-10 10:00:00 8.7 0 Calma 5 Oeste 0 -- -- 70
2020-03-10 09:00:00 6.1 3 Oeste 6 Nordeste 0 -- -- 77
2020-03-10 08:00:00 4.3 3 Nordeste 9 Este 0 -- -- 79
2020-03-10 07:00:00 4.1 4 Nordeste 9 Nordeste 0 -- -- 77
2020-03-10 06:00:00 3.6 5 Este 8 Este 0 -- -- 81
2020-03-10 05:00:00 3.2 2 Sudoeste 3 Noroeste 0 -- -- 80
2020-03-10 04:00:00 3.2 0 Calma 3 Sur 0 -- -- 80
2020-03-10 03:00:00 3.7 0 Calma 3 Sur 0 -- -- 77
2020-03-10 02:00:00 4.5 3 Sur 5 Sur 0 -- -- 76
2020-03-10 01:00:00 6.1 0 Calma 7 Sur 0 -- -- 71
2020-03-10 00:00:00 6.8 4 Sur 9 Sur 0 -- -- 69
2020-03-09 23:00:00 8.9 3 Sudeste 6 Oeste 0 -- -- 59
2020-03-09 22:00:00 11.9 4 Sur 20 Norte 0 -- -- 50
2020-03-09 21:00:00 12.5 4 Nordeste 30 Norte 0 -- -- 48
2020-03-09 20:00:00 14.3 12 Nordeste 24 Nordeste 0 -- -- 43
2020-03-09 19:00:00 15.7 6 Nordeste 15 Norte 0 -- -- 41
2020-03-09 18:00:00 17.7 5 Norte 17 Nordeste 0 -- -- 34
2020-03-09 17:00:00 18.8 8 Norte 17 Norte 0 -- -- 33
2020-03-09 16:00:00 18.5 8 Norte 23 Norte 0 -- -- 37
2020-03-09 15:00:00 17.5 9 Sudeste 15 Sudeste 0 -- -- 41
2020-03-09 14:00:00 16.4 6 Este 13 Oeste 0 -- -- 44
2020-03-09 13:00:00 15.6 5 Este 27 Nordeste 0 -- -- 45
2020-03-09 12:00:00 14.4 7 Norte 19 Norte 0 -- -- 47
2020-03-09 11:00:00 12.7 10 Norte 17 Nordeste 0 -- -- 53
2020-03-09 10:00:00 10.3 6 Nordeste 10 Nordeste 0 -- -- 66
2020-03-09 09:00:00 7.3 2 Nordeste 6 Este 0 -- -- 78
2020-03-09 08:00:00 5.1 0 Calma 4 Sur 0 -- -- 80
2020-03-09 07:00:00 5.5 2 Sudeste 9 Sur 0 -- -- 79
2020-03-09 06:00:00 5.6 5 Este 8 Norte 0 -- -- 82
2020-03-09 05:00:00 7.2 0 Calma 9 Nordeste 0 -- -- 74
2020-03-09 04:00:00 7.9 5 Noroeste 22 Oeste 0 -- -- 72
2020-03-09 03:00:00 7.6 6 Sudeste 13 Este 0 -- -- 78
2020-03-09 02:00:00 7.3 4 Norte 14 Oeste 0 -- -- 79
2020-03-09 01:00:00 9.1 6 Sur 32 Oeste 0 -- -- 73
2020-03-09 00:00:00 10.9 16 Oeste 28 Oeste 0 -- -- 67
2020-03-08 23:00:00 7.9 4 Noroeste 8 Sur 0 -- -- 82
2020-03-08 22:00:00 9.8 2 Nordeste 17 Sudoeste 0 -- -- 73
2020-03-08 21:00:00 11.2 14 Sudoeste 17 Sudoeste 0 -- -- 71
2020-03-08 20:00:00 12.6 10 Sur 14 Sur 0 -- -- 66
2020-03-08 19:00:00 13.7 7 Sudoeste 20 Oeste 0 -- -- 62
2020-03-08 18:00:00 15.2 15 Oeste 24 Oeste 0 -- -- 53
2020-03-08 17:00:00 16.1 12 Oeste 19 Oeste 0 -- -- 49
2020-03-08 16:00:00 16.1 4 Oeste 15 Oeste 0 -- -- 47
2020-03-08 15:00:00 16.5 5 Oeste 13 Oeste 0 -- -- 46
2020-03-08 14:00:00 15.6 8 Sudoeste 16 Sudoeste 0 -- -- 47
2020-03-08 13:00:00 13.6 7 Sudoeste 14 Sur 0 -- -- 53
2020-03-08 12:00:00 11.6 4 Sudoeste 11 Sudoeste 0 -- -- 60
2020-03-08 11:00:00 9.4 2 Sur 8 Este 0 -- -- 67
2020-03-08 10:00:00 6.3 4 Este 7 Este 0 -- -- 73
2020-03-08 09:00:00 2.7 3 Nordeste 8 Este 0 -- -- 85
2020-03-08 08:00:00 -0.7 3 Este 5 Nordeste 0 -- -- 91
2020-03-08 07:00:00 -0.4 3 Este 8 Este 0 -- -- 89
2020-03-08 06:00:00 -0.4 3 Nordeste 7 Nordeste 0 -- -- 89
2020-03-08 05:00:00 -0.6 2 Este 7 Este 0 -- -- 88
2020-03-08 04:00:00 0.6 3 Norte 6 Este 0 -- -- 87
2020-03-08 03:00:00 1.5 4 Este 6 Este 0 -- -- 86
2020-03-08 02:00:00 1.9 2 Oeste 8 Este 0 -- -- 82
2020-03-08 01:00:00 4.3 6 Nordeste 10 Nordeste 0 -- -- 80
2020-03-08 00:00:00 4.3 5 Nordeste 8 Nordeste 0 -- -- 80
2020-03-07 23:00:00 5.9 2 Nordeste 12 Nordeste 0 -- -- 73
2020-03-07 22:00:00 7.4 6 Nordeste 9 Nordeste 0 -- -- 69
2020-03-07 21:00:00 9 4 Sudeste 8 Sur 0 -- -- 62
2020-03-07 20:00:00 11.9 3 Sur 8 Sur 0 -- -- 52
2020-03-07 19:00:00 15 2 Oeste 13 Oeste 0 -- -- 46
2020-03-07 18:00:00 17.3 6 Sudoeste 15 Noroeste 0 -- -- 40
2020-03-07 17:00:00 17.9 5 Oeste 18 Norte 0 -- -- 39
2020-03-07 16:00:00 17.5 9 Norte 21 Norte 0 -- -- 41
2020-03-07 15:00:00 15 8 Norte 17 Norte 0 -- -- 45
2020-03-07 14:00:00 15.7 12 Norte 26 Norte 0 -- -- 43
2020-03-07 13:00:00 14 14 Noroeste 23 Noroeste 0 -- -- 49
2020-03-07 12:00:00 11.5 3 Oeste 16 Oeste 0 -- -- 55
2020-03-07 11:00:00 9.3 4 Sudeste 12 Sudeste 0 -- -- 58
2020-03-07 10:00:00 7.1 3 Oeste 6 Sudoeste 0 -- -- 60
2020-03-07 09:00:00 4.8 0 Calma 6 Este 0 -- -- 71
2020-03-07 08:00:00 1 3 Noroeste 9 Este 0 -- -- 79
2020-03-07 07:00:00 0.9 3 Este 5 Nordeste 0 -- -- 81
2020-03-07 06:00:00 0.5 0 Calma 8 Oeste 0 -- -- 80
2020-03-07 05:00:00 0.6 0 Calma 6 Sudeste 0 -- -- 75
2020-03-07 04:00:00 1.1 2 Norte 8 Este 0 -- -- 74
2020-03-07 03:00:00 2.1 3 Sudeste 9 Oeste 0 -- -- 70
2020-03-07 02:00:00 4 2 Sur 14 Sudoeste 0 -- -- 62
2020-03-07 01:00:00 6.1 6 Nordeste 10 Nordeste 0 -- -- 54
2020-03-07 00:00:00 7.3 6 Este 27 Nordeste 0 -- -- 49
2020-03-06 23:00:00 9 13 Nordeste 25 Norte 0 -- -- 42
2020-03-06 22:00:00 7.2 0 Calma 8 Norte 0 -- -- 51
2020-03-06 21:00:00 8.9 7 Sur 16 Norte 0 -- -- 41
2020-03-06 20:00:00 9.6 9 Norte 23 Noroeste 0 -- -- 41
2020-03-06 19:00:00 12.1 10 Norte 28 Norte 0 -- -- 35
2020-03-06 18:00:00 14 14 Noroeste 36 Noroeste 0 -- -- 33
2020-03-06 17:00:00 14 17 Noroeste 43 Norte 0 -- -- 34
2020-03-06 16:00:00 14.5 18 Noroeste 40 Noroeste 0 -- -- 35
2020-03-06 15:00:00 12.2 19 Noroeste 46 Noroeste 0 -- -- 42
2020-03-06 14:00:00 12.5 22 Noroeste 53 Oeste 0 -- -- 42
2020-03-06 13:00:00 11.8 23 Noroeste 45 Noroeste 0 -- -- 42
2020-03-06 12:00:00 12 26 Noroeste 58 Noroeste 0 -- -- 44
2020-03-06 11:00:00 11 24 Oeste 42 Oeste 0 -- -- 47
2020-03-06 10:00:00 10.4 18 Noroeste 39 Oeste 0 -- -- 51
2020-03-06 09:00:00 8.7 11 Oeste 32 Oeste 0 -- -- 58
2020-03-06 08:00:00 7.3 20 Oeste 34 Oeste 0 -- -- 68
2020-03-06 07:00:00 5.9 24 Oeste 34 Oeste 0 -- -- 80
2020-03-06 06:00:00 5.2 15 Sudoeste 23 Sudoeste 0 -- -- 82
2020-03-06 05:00:00 5.9 14 Sudoeste 25 Oeste 0 -- -- 78
2020-03-06 04:00:00 6.1 8 Sudoeste 24 Oeste 0 -- -- 71
2020-03-06 03:00:00 6.8 7 Sudoeste 26 Oeste 0 -- -- 68
2020-03-06 02:00:00 8.4 20 Oeste 30 Oeste 0 -- -- 64
2020-03-06 01:00:00 9.2 14 Oeste 31 Oeste 0 -- -- 65
2020-03-06 00:00:00 9.9 17 Oeste 32 Oeste 0 -- -- 63
2020-03-05 23:00:00 10.6 18 Oeste 33 Oeste 0 -- -- 61
2020-03-05 22:00:00 11.7 19 Oeste 40 Noroeste 0 -- -- 58
2020-03-05 21:00:00 12.5 22 Oeste 39 Oeste 0 -- -- 53
2020-03-05 20:00:00 13.8 18 Oeste 33 Oeste 0 -- -- 47
2020-03-05 19:00:00 14 16 Oeste 33 Oeste 0 -- -- 47
2020-03-05 18:00:00 15 15 Oeste 44 Oeste 0 -- -- 45
2020-03-05 17:00:00 15.1 27 Oeste 42 Oeste 0 -- -- 43
2020-03-05 16:00:00 16.2 24 Oeste 43 Oeste 0 -- -- 42
2020-03-05 15:00:00 16.7 25 Oeste 50 Oeste 0 -- -- 41
2020-03-05 14:00:00 15.6 27 Oeste 44 Oeste 0 -- -- 45
2020-03-05 13:00:00 12.5 17 Oeste 49 Oeste 0 -- -- 75
2020-03-05 12:00:00 12 20 Sudoeste 42 Sudoeste 0 -- -- 87
2020-03-05 11:00:00 12.1 29 Sudoeste 47 Sudoeste 0 -- -- 84
2020-03-05 10:00:00 12.4 26 Sudoeste 38 Sudoeste 0 -- -- 80
2020-03-05 09:00:00 12 25 Sudoeste 44 Sudoeste 0 -- -- 83
2020-03-05 08:00:00 12 26 Sudoeste 40 Sudoeste 0 -- -- 84
2020-03-05 07:00:00 11.8 19 Sudoeste 34 Sudoeste 0 -- -- 86
2020-03-05 06:00:00 11.8 20 Sudoeste 30 Sudoeste 0 -- -- 88
2020-03-05 05:00:00 11.6 12 Sudoeste 23 Sudoeste 0 -- -- 88
2020-03-05 04:00:00 11.5 15 Sudoeste 24 Sur 0 -- -- 89
2020-03-05 03:00:00 10.8 13 Sur 22 Sur 0 -- -- 89
2020-03-05 02:00:00 10.6 8 Sur 23 Sudoeste 0 -- -- 85
2020-03-05 01:00:00 11.1 15 Oeste 30 Oeste 0 -- -- 83
2020-03-05 00:00:00 11 10 Sur 24 Sudoeste 0 -- -- 84
2020-03-04 23:00:00 11.6 15 Sudoeste 22 Sudoeste 0 -- -- 83
2020-03-04 22:00:00 12.3 14 Sudoeste 24 Sudoeste 0 -- -- 80
2020-03-04 21:00:00 13.8 16 Sudoeste 23 Oeste 0 -- -- 73
2020-03-04 20:00:00 15.2 16 Oeste 25 Oeste 0 -- -- 55
2020-03-04 19:00:00 15.5 14 Oeste 22 Oeste 0 -- -- 56
2020-03-04 18:00:00 17.4 11 Oeste 30 Oeste 0 -- -- 50
2020-03-04 17:00:00 18.9 17 Noroeste 30 Oeste 0 -- -- 47
2020-03-04 16:00:00 18.3 19 Noroeste 36 Oeste 0 -- -- 47
2020-03-04 15:00:00 18.6 19 Oeste 38 Oeste 0 -- -- 48
2020-03-04 14:00:00 18 19 Oeste 43 Oeste 0 -- -- 48
2020-03-04 13:00:00 17.1 20 Oeste 39 Oeste 0 -- -- 55
2020-03-04 12:00:00 16.4 23 Oeste 37 Oeste 0 -- -- 60
2020-03-04 11:00:00 14.9 20 Oeste 30 Sudoeste 0 -- -- 72
2020-03-04 10:00:00 13.4 16 Sudoeste 26 Sudoeste 0 -- -- 82
2020-03-04 09:00:00 11.8 11 Sudoeste 31 Oeste 0 -- -- 91
2020-03-04 08:00:00 11.5 18 Sudoeste 31 Sudoeste 0 -- -- 91
2020-03-04 07:00:00 11.6 21 Sudoeste 30 Sudoeste 0 -- -- 92
2020-03-04 06:00:00 11.2 18 Sudoeste 27 Sudoeste 0 -- -- 92
2020-03-04 05:00:00 11.4 16 Sudoeste 28 Sudoeste 0 -- -- 91
2020-03-04 04:00:00 11.3 15 Sudoeste 28 Sudoeste 0 -- -- 92
2020-03-04 03:00:00 11.8 22 Sudoeste 33 Sudoeste 0 -- -- 91
2020-03-04 02:00:00 12.5 23 Sudoeste 33 Sudoeste 0 -- -- 89
2020-03-04 01:00:00 12.5 22 Oeste 31 Oeste 0 -- -- 89
2020-03-04 00:00:00 12.4 12 Sudoeste 26 Sudoeste 0 -- -- 89
2020-03-03 23:00:00 12.9 20 Sudoeste 33 Sudoeste 0 -- -- 87
2020-03-03 22:00:00 13.1 22 Sudoeste 50 Sudoeste 0 -- -- 86
2020-03-03 21:00:00 13.3 30 Oeste 49 Oeste 0 -- -- 84
2020-03-03 20:00:00 13.4 24 Oeste 41 Oeste 0 -- -- 82
2020-03-03 19:00:00 13.4 26 Oeste 40 Sudoeste 0 -- -- 81
2020-03-03 18:00:00 13.9 29 Sudoeste 47 Oeste 0 -- -- 77
2020-03-03 17:00:00 13.7 31 Sudoeste 49 Sudoeste 0 -- -- 77
2020-03-03 16:00:00 13.8 30 Sudoeste 53 Sudoeste 0 -- -- 75
2020-03-03 15:00:00 13 29 Sudoeste 44 Sudoeste 0 -- -- 76
2020-03-03 14:00:00 11.7 30 Sudoeste 47 Sudoeste 0 -- -- 77
2020-03-03 13:00:00 10.7 29 Sudoeste 49 Sudoeste 0 -- -- 78
2020-03-03 12:00:00 10 35 Sudoeste 50 Sudoeste 0 -- -- 80
2020-03-03 11:00:00 8.9 33 Sudoeste 45 Sudoeste 0 -- -- 83
2020-03-03 10:00:00 7.8 26 Sudoeste 41 Sudoeste 0 -- -- 86
2020-03-03 09:00:00 7.2 23 Sudoeste 39 Sudoeste 0 -- -- 84
2020-03-03 08:00:00 6.4 15 Sudoeste 30 Sudoeste 0 -- -- 78
2020-03-03 07:00:00 6.4 13 Sur 23 Sur 0 -- -- 76
2020-03-03 06:00:00 6 14 Sudoeste 25 Sudoeste 0 -- -- 74
2020-03-03 05:00:00 5.8 17 Sudoeste 24 Sudoeste 0 -- -- 73
2020-03-03 04:00:00 6.6 21 Sudoeste 43 Oeste 0 -- -- 68
2020-03-03 03:00:00 5.9 23 Sudoeste 35 Sudoeste 0 -- -- 71
2020-03-03 02:00:00 6.7 10 Sudoeste 26 Oeste 0 -- -- 63
2020-03-03 01:00:00 7.1 15 Sur 33 Oeste 0 -- -- 57
2020-03-03 00:00:00 7.6 20 Oeste 33 Oeste 0 -- -- 56
2020-03-02 23:00:00 6.7 12 Sudoeste 21 Sudoeste 0 -- -- 62
2020-03-02 22:00:00 5.8 10 Sur 19 Oeste 0 -- -- 66
2020-03-02 21:00:00 8.4 12 Oeste 38 Noroeste 0 -- -- 50
2020-03-02 20:00:00 8.5 10 Noroeste 41 Noroeste 0 -- -- 54
2020-03-02 19:00:00 9.6 23 Noroeste 44 Oeste 0 -- -- 50
2020-03-02 18:00:00 11.5 20 Noroeste 44 Noroeste 0 -- -- 40
2020-03-02 17:00:00 12.1 25 Noroeste 66 Noroeste 0 -- -- 45
2020-03-02 16:00:00 12.8 31 Noroeste 60 Noroeste 0 -- -- 38
2020-03-02 15:00:00 10.5 35 Oeste 66 Oeste 0 -- -- 51
2020-03-02 14:00:00 12.6 35 Oeste 71 Oeste 0 -- -- 43
2020-03-02 13:00:00 12.9 37 Oeste 67 Oeste 0 -- -- 46
2020-03-02 12:00:00 12.8 33 Oeste 63 Oeste 0 -- -- 53
2020-03-02 11:00:00 12.6 34 Oeste 58 Oeste 0 -- -- 51
2020-03-02 10:00:00 12 31 Oeste 63 Oeste 0 -- -- 56
2020-03-02 09:00:00 11.8 41 Oeste 63 Oeste 1.6 -- -- 57
2020-03-02 08:00:00 11.9 33 Sudoeste 64 Oeste 0 -- -- 88
2020-03-02 07:00:00 12.5 46 Oeste 75 Oeste 0.2 -- -- 85
2020-03-02 06:00:00 12.5 40 Sudoeste 63 Sudoeste 0 -- -- 81
2020-03-02 05:00:00 11.9 30 Sudoeste 59 Sudoeste 0 -- -- 84
2020-03-02 04:00:00 11.6 36 Sudoeste 60 Sudoeste 0 -- -- 83
2020-03-02 03:00:00 12.1 38 Sudoeste 65 Sudoeste 0 -- -- 83
2020-03-02 02:00:00 12.4 32 Sudoeste 59 Sudoeste 0 -- -- 84
2020-03-02 01:00:00 12.2 30 Sudoeste 53 Sudoeste 0.2 -- -- 85
2020-03-02 00:00:00 12.3 22 Sudoeste 48 Sur 0.2 -- -- 87